createdAt,value
2018-10-07T00:01:36.085Z,78.18
2018-10-07T00:04:03.775Z,78.73
2018-10-07T00:06:31.456Z,79.48
2018-10-07T00:08:59.170Z,79.54
2018-10-07T00:11:26.873Z,79.77
2018-10-07T00:13:54.578Z,78.56
2018-10-07T00:16:22.301Z,78.88
2018-10-07T00:18:49.994Z,78.62
2018-10-07T00:21:17.700Z,78.48
2018-10-07T00:23:45.404Z,79.40
2018-10-07T00:26:13.072Z,79.95
2018-10-07T00:28:40.762Z,80.46
2018-10-07T00:31:08.488Z,78.56
2018-10-07T00:33:36.141Z,81.55
2018-10-07T00:36:03.884Z,79.92
2018-10-07T00:38:31.616Z,81.46
2018-10-07T00:40:59.377Z,80.71
2018-10-07T00:43:27.149Z,80.13
2018-10-07T00:45:54.805Z,81.03
2018-10-07T00:48:26.998Z,81.20
2018-10-07T00:50:54.825Z,80.98
2018-10-07T00:53:22.541Z,81.06
2018-10-07T00:55:50.329Z,80.97
2018-10-07T00:58:18.022Z,80.86
2018-10-07T01:00:45.812Z,79.83
2018-10-07T01:03:13.492Z,79.45
2018-10-07T01:05:41.280Z,81.93
2018-10-07T01:08:08.936Z,80.82
2018-10-07T01:10:36.641Z,79.93
2018-10-07T01:13:04.337Z,81.65
2018-10-07T01:15:31.969Z,81.81
2018-10-07T01:17:59.808Z,81.52
2018-10-07T01:20:27.555Z,80.95
2018-10-07T01:22:55.285Z,80.61
2018-10-07T01:25:23.032Z,80.20
2018-10-07T01:27:50.748Z,78.81
2018-10-07T01:30:21.553Z,79.46
2018-10-07T01:32:51.036Z,79.70
2018-10-07T01:35:18.905Z,78.97
2018-10-07T01:37:46.779Z,79.73
2018-10-07T01:40:14.530Z,79.67
2018-10-07T01:42:42.178Z,79.35
2018-10-07T01:45:09.897Z,78.79
2018-10-07T01:47:37.653Z,80.45
2018-10-07T01:50:05.657Z,78.37
2018-10-07T01:52:33.309Z,80.43
2018-10-07T01:55:01.032Z,80.95
2018-10-07T01:57:28.681Z,77.19
2018-10-07T01:59:56.365Z,80.34
2018-10-07T02:02:24.097Z,82.16
2018-10-07T02:04:51.767Z,83.95
2018-10-07T02:07:19.405Z,82.89
2018-10-07T02:09:47.201Z,82.13
2018-10-07T02:12:14.858Z,82.10
2018-10-07T02:14:42.481Z,81.95
2018-10-07T02:17:10.208Z,80.72
2018-10-07T02:19:37.866Z,82.41
2018-10-07T02:22:05.623Z,82.13
2018-10-07T02:24:33.313Z,81.99
2018-10-07T02:27:01.268Z,81.97
2018-10-07T02:29:28.961Z,80.49
2018-10-07T02:31:56.657Z,80.85
2018-10-07T02:34:24.326Z,78.89
2018-10-07T02:36:52.122Z,80.20
2018-10-07T02:39:19.869Z,80.92
2018-10-07T02:41:47.616Z,81.48
2018-10-07T02:44:15.353Z,82.20
2018-10-07T02:46:43.160Z,81.96
2018-10-07T02:49:10.842Z,80.35
2018-10-07T02:51:38.665Z,81.03
2018-10-07T02:54:06.436Z,81.44
2018-10-07T02:56:34.228Z,82.60
2018-10-07T02:59:02.202Z,80.97
2018-10-07T03:01:29.975Z,80.97
2018-10-07T03:03:57.733Z,82.67
2018-10-07T03:06:25.461Z,83.73
2018-10-07T03:08:53.207Z,82.01
2018-10-07T03:11:20.922Z,83.86
2018-10-07T03:13:50.412Z,82.17
2018-10-07T03:16:18.120Z,82.46
2018-10-07T03:18:45.767Z,83.68
2018-10-07T03:21:13.558Z,84.81
2018-10-07T03:23:41.225Z,83.17
2018-10-07T03:26:08.953Z,82.54
2018-10-07T03:28:36.644Z,80.05
2018-10-07T03:31:04.359Z,81.48
2018-10-07T03:33:32.049Z,81.49
2018-10-07T03:35:59.909Z,81.63
2018-10-07T03:38:27.584Z,82.76
2018-10-07T03:40:55.545Z,83.78
2018-10-07T03:43:23.321Z,81.07
2018-10-07T03:45:50.991Z,78.83
2018-10-07T03:48:18.681Z,83.42
2018-10-07T03:50:46.381Z,78.13
2018-10-07T03:53:14.098Z,77.62
2018-10-07T03:55:41.764Z,79.42
2018-10-07T03:58:09.468Z,80.17
2018-10-07T04:00:37.200Z,79.82
2018-10-07T04:03:04.973Z,78.86
2018-10-07T04:05:32.677Z,77.43
2018-10-07T04:08:00.406Z,77.59
2018-10-07T04:10:28.029Z,78.61
2018-10-07T04:12:55.764Z,80.37
2018-10-07T04:15:23.482Z,77.88
2018-10-07T04:17:51.256Z,77.97
2018-10-07T04:20:18.916Z,81.50
2018-10-07T04:22:46.576Z,83.17
2018-10-07T04:25:14.299Z,84.33
2018-10-07T04:27:41.981Z,84.19
2018-10-07T04:30:09.698Z,81.75
2018-10-07T04:32:37.396Z,82.90
2018-10-07T04:35:05.137Z,83.65
2018-10-07T04:37:32.898Z,83.34
2018-10-07T04:40:00.657Z,83.26
2018-10-07T04:42:28.253Z,83.38
2018-10-07T04:44:55.973Z,83.51
2018-10-07T04:47:23.648Z,83.13
2018-10-07T04:49:51.381Z,80.24
2018-10-07T04:52:19.085Z,79.80
2018-10-07T04:54:46.752Z,81.52
2018-10-07T04:57:14.473Z,84.79
2018-10-07T04:59:42.249Z,81.77
2018-10-07T05:02:09.909Z,80.85
2018-10-07T05:04:37.656Z,80.46
2018-10-07T05:07:05.635Z,79.36
2018-10-07T05:09:33.913Z,78.85
2018-10-07T05:12:04.693Z,80.37
2018-10-07T05:14:32.485Z,82.83
2018-10-07T05:17:00.577Z,79.57
2018-10-07T05:19:28.342Z,78.52
2018-10-07T05:21:56.164Z,77.95
2018-10-07T05:24:23.916Z,79.28
2018-10-07T05:26:51.654Z,82.31
2018-10-07T05:29:19.373Z,81.96
2018-10-07T05:31:47.020Z,83.03
2018-10-07T05:34:14.693Z,79.64
2018-10-07T05:36:42.456Z,79.70
2018-10-07T05:39:11.245Z,83.22
2018-10-07T05:41:38.961Z,81.51
2018-10-07T05:44:06.710Z,81.63
2018-10-07T05:46:34.396Z,82.90
2018-10-07T05:49:02.092Z,81.26
2018-10-07T05:51:29.842Z,80.02
2018-10-07T05:53:57.592Z,82.43
2018-10-07T05:56:25.351Z,85.04
2018-10-07T05:58:55.525Z,82.73
2018-10-07T06:01:28.769Z,82.55
2018-10-07T06:04:18.241Z,82.22
2018-10-07T06:06:46.360Z,81.22
2018-10-07T06:09:33.179Z,80.71
2018-10-07T06:12:08.447Z,84.63
2018-10-07T06:14:54.172Z,80.59
2018-10-07T06:17:21.823Z,79.81
2018-10-07T06:19:49.525Z,84.53
2018-10-07T06:22:17.286Z,85.74
2018-10-07T06:24:49.818Z,83.89
2018-10-07T06:27:17.636Z,83.59
2018-10-07T06:29:45.470Z,84.89
2018-10-07T06:32:13.233Z,86.80
2018-10-07T06:34:40.974Z,85.49
2018-10-07T06:37:08.693Z,82.80
2018-10-07T06:39:36.501Z,86.94
2018-10-07T06:42:04.249Z,86.10
2018-10-07T06:44:31.979Z,85.31
2018-10-07T06:47:02.877Z,85.53
2018-10-07T06:49:30.601Z,86.52
2018-10-07T06:51:58.433Z,84.41
2018-10-07T06:54:26.174Z,86.44
2018-10-07T06:56:54.009Z,84.44
2018-10-07T06:59:21.800Z,85.98
2018-10-07T07:01:49.577Z,84.85
2018-10-07T07:04:17.413Z,84.96
2018-10-07T07:06:45.242Z,83.64
2018-10-07T07:09:12.877Z,84.71
2018-10-07T07:11:40.645Z,84.90
2018-10-07T07:14:08.504Z,84.61
2018-10-07T07:16:36.444Z,83.96
2018-10-07T07:19:04.189Z,83.48
2018-10-07T07:21:31.913Z,82.41
2018-10-07T07:24:01.117Z,83.65
2018-10-07T07:26:28.802Z,82.41
2018-10-07T07:28:56.500Z,82.44
2018-10-07T07:31:24.565Z,82.27
2018-10-07T07:33:52.503Z,81.58
2018-10-07T07:36:20.217Z,81.93
2018-10-07T07:38:47.933Z,81.27
2018-10-07T07:41:15.701Z,80.69
2018-10-07T07:43:43.321Z,80.21
2018-10-07T07:46:11.552Z,79.90
2018-10-07T07:48:39.258Z,79.38
2018-10-07T07:51:09.697Z,78.66
2018-10-07T07:53:38.078Z,78.50
2018-10-07T07:56:05.993Z,78.05
2018-10-07T07:58:33.705Z,77.64
2018-10-07T08:01:01.497Z,76.59
2018-10-07T08:03:29.265Z,76.56
2018-10-07T08:05:57.003Z,76.05
2018-10-07T08:08:24.910Z,75.00
2018-10-07T08:10:52.665Z,75.76
2018-10-07T08:13:20.449Z,74.77
2018-10-07T08:15:48.140Z,73.47
2018-10-07T08:18:15.857Z,73.00
2018-10-07T08:20:43.606Z,71.89
2018-10-07T08:23:11.329Z,71.37
2018-10-07T08:25:39.017Z,72.09
2018-10-07T08:28:07.657Z,71.36
2018-10-07T08:30:35.382Z,70.00
2018-10-07T08:33:04.628Z,70.46
2018-10-07T08:35:32.324Z,70.02
2018-10-07T08:38:00.018Z,69.67
2018-10-07T08:40:27.765Z,69.42
2018-10-07T08:42:55.413Z,68.97
2018-10-07T08:45:23.070Z,68.33
2018-10-07T08:47:50.764Z,67.87
2018-10-07T08:50:18.485Z,68.62
2018-10-07T08:52:46.201Z,68.56
2018-10-07T08:55:13.928Z,67.44
2018-10-07T08:57:41.613Z,67.58
2018-10-07T09:00:09.358Z,67.82
2018-10-07T09:02:37.129Z,67.39
2018-10-07T09:05:04.876Z,67.18
2018-10-07T09:07:32.581Z,67.27
2018-10-07T09:10:00.181Z,67.25
2018-10-07T09:12:27.925Z,66.45
2018-10-07T09:14:55.617Z,67.00
2018-10-07T09:17:23.381Z,66.66
2018-10-07T09:19:51.073Z,66.34
2018-10-07T09:22:18.736Z,66.69
2018-10-07T09:24:46.368Z,65.88
2018-10-07T09:27:14.173Z,65.98
2018-10-07T09:29:41.853Z,65.24
2018-10-07T09:32:09.649Z,66.01
2018-10-07T09:34:37.330Z,64.54
2018-10-07T09:37:05.462Z,64.65
2018-10-07T09:39:33.227Z,64.77
2018-10-07T09:42:00.933Z,64.11
2018-10-07T09:44:28.660Z,62.94
2018-10-07T09:46:56.365Z,63.38
2018-10-07T09:49:24.124Z,62.34
2018-10-07T09:51:51.820Z,62.39
2018-10-07T09:54:19.529Z,62.25
2018-10-07T09:56:47.249Z,63.31
2018-10-07T09:59:14.988Z,62.46
2018-10-07T10:01:42.689Z,62.50
2018-10-07T10:04:10.461Z,62.39
2018-10-07T10:06:38.076Z,62.94
2018-10-07T10:09:07.577Z,62.10
2018-10-07T10:11:35.288Z,62.15
2018-10-07T10:14:03.128Z,60.72
2018-10-07T10:16:42.928Z,60.02
2018-10-07T10:20:17.431Z,59.36
2018-10-07T10:22:54.724Z,58.93
2018-10-07T10:25:35.832Z,58.70
2018-10-07T10:28:17.924Z,56.98
2018-10-07T10:31:00.781Z,56.77
2018-10-07T10:33:31.968Z,57.24
2018-10-07T10:36:19.244Z,56.66
2018-10-07T10:39:09.104Z,56.79
2018-10-07T10:41:48.876Z,55.72
2018-10-07T10:44:21.820Z,57.00
2018-10-07T10:47:02.540Z,56.17
2018-10-07T10:49:56.461Z,56.02
2018-10-07T10:52:30.226Z,56.67
2018-10-07T10:55:10.570Z,56.31
2018-10-07T10:57:49.980Z,55.54
2018-10-07T11:00:24.664Z,54.46
2018-10-07T11:03:37.096Z,55.90
2018-10-07T11:06:28.681Z,54.73
2018-10-07T11:09:07.677Z,55.23
2018-10-07T11:11:55.623Z,53.24
2018-10-07T11:15:41.772Z,52.95
2018-10-07T11:19:23.828Z,53.44
2018-10-07T11:24:08.740Z,50.87
2018-10-07T11:26:47.029Z,51.22
2018-10-07T11:29:30.749Z,51.23
2018-10-07T11:32:17.376Z,51.81
2018-10-07T11:35:01.925Z,51.34
2018-10-07T11:38:18.140Z,50.76
2018-10-07T11:41:00.812Z,50.68
2018-10-07T11:43:42.932Z,50.79
2018-10-07T11:46:35.521Z,51.21
2018-10-07T11:49:11.317Z,51.00
2018-10-07T11:51:54.364Z,49.82
2018-10-07T11:54:40.284Z,49.78
2018-10-07T11:57:07.945Z,49.81
2018-10-07T11:59:35.709Z,51.11
2018-10-07T12:02:03.467Z,49.73
2018-10-07T12:04:31.141Z,50.03
2018-10-07T12:06:58.877Z,48.19
2018-10-07T12:09:26.558Z,47.10
2018-10-07T12:11:58.008Z,48.21
2018-10-07T12:14:25.809Z,47.25
2018-10-07T12:16:53.589Z,48.07
2018-10-07T12:19:21.261Z,46.22
2018-10-07T12:21:49.020Z,46.33
2018-10-07T12:24:16.678Z,46.64
2018-10-07T12:26:44.345Z,46.28
2018-10-07T12:29:12.072Z,47.86
2018-10-07T12:31:39.739Z,47.44
2018-10-07T12:34:07.461Z,48.00
2018-10-07T12:36:35.126Z,47.48
2018-10-07T12:39:03.033Z,47.21
2018-10-07T12:41:30.772Z,46.46
2018-10-07T12:43:58.454Z,45.74
2018-10-07T12:46:26.153Z,46.84
2018-10-07T12:48:54.106Z,47.22
2018-10-07T12:51:21.872Z,47.34
2018-10-07T12:53:49.603Z,48.30
2018-10-07T12:56:17.289Z,48.21
2018-10-07T12:58:45.105Z,49.02
2018-10-07T13:01:13.136Z,48.92
2018-10-07T13:03:40.763Z,48.64
2018-10-07T13:06:08.475Z,48.62
2018-10-07T13:08:36.683Z,50.30
2018-10-07T13:11:04.495Z,50.10
2018-10-07T13:13:32.338Z,50.75
2018-10-07T13:16:00.057Z,50.96
2018-10-07T13:18:27.809Z,51.42
2018-10-07T13:20:55.557Z,52.14
2018-10-07T13:23:23.500Z,52.21
2018-10-07T13:25:51.341Z,52.00
2018-10-07T13:28:19.040Z,53.33
2018-10-07T13:30:46.647Z,53.33
2018-10-07T13:33:14.337Z,52.80
2018-10-07T13:35:42.011Z,53.27
2018-10-07T13:38:14.029Z,53.11
2018-10-07T13:40:41.856Z,53.87
2018-10-07T13:43:09.574Z,53.53
2018-10-07T13:45:37.292Z,54.26
2018-10-07T13:48:04.981Z,54.26
2018-10-07T13:50:32.657Z,54.45
2018-10-07T13:53:00.296Z,54.72
2018-10-07T13:55:28.025Z,54.57
2018-10-07T13:57:55.721Z,54.77
2018-10-07T14:00:24.528Z,54.59
2018-10-07T14:02:52.358Z,54.88
2018-10-07T14:05:20.082Z,54.64
2018-10-07T14:07:47.784Z,54.73
2018-10-07T14:10:15.480Z,54.95
2018-10-07T14:12:43.169Z,54.99
2018-10-07T14:15:10.825Z,54.46
2018-10-07T14:17:38.456Z,54.78
2018-10-07T14:20:06.317Z,54.65
2018-10-07T14:22:33.997Z,55.47
2018-10-07T14:25:01.725Z,55.09
2018-10-07T14:27:29.457Z,55.51
2018-10-07T14:29:57.177Z,55.51
2018-10-07T14:32:24.940Z,55.30
2018-10-07T14:34:52.646Z,55.29
2018-10-07T14:37:20.445Z,56.40
2018-10-07T14:39:48.118Z,56.08
2018-10-07T14:42:15.884Z,55.38
2018-10-07T14:44:43.612Z,55.47
2018-10-07T14:47:11.297Z,55.11
2018-10-07T14:49:38.980Z,54.94
2018-10-07T14:52:06.725Z,55.64
2018-10-07T14:54:34.381Z,55.91
2018-10-07T14:57:02.064Z,56.38
2018-10-07T14:59:29.785Z,56.75
2018-10-07T15:01:57.517Z,56.26
2018-10-07T15:04:25.241Z,56.27
2018-10-07T15:06:52.888Z,56.62
2018-10-07T15:09:20.557Z,56.60
2018-10-07T15:11:48.265Z,56.48
2018-10-07T15:14:15.930Z,56.04
2018-10-07T15:16:43.916Z,57.02
2018-10-07T15:19:11.618Z,57.01
2018-10-07T15:21:39.318Z,56.48
2018-10-07T15:24:07.042Z,57.38
2018-10-07T15:26:34.745Z,57.13
2018-10-07T15:29:02.477Z,57.23
2018-10-07T15:31:30.209Z,56.92
2018-10-07T15:33:57.914Z,57.51
2018-10-07T15:36:25.696Z,57.50
2018-10-07T15:38:53.373Z,58.42
2018-10-07T15:41:21.087Z,58.37
2018-10-07T15:43:48.729Z,58.22
2018-10-07T15:46:16.434Z,58.48
2018-10-07T15:48:44.200Z,58.92
2018-10-07T15:51:12.021Z,59.51
2018-10-07T15:53:39.762Z,59.35
2018-10-07T15:56:07.508Z,58.94
2018-10-07T15:58:35.204Z,59.75
2018-10-07T16:01:02.941Z,59.66
2018-10-07T16:03:30.688Z,59.96
2018-10-07T16:05:58.372Z,59.99
2018-10-07T16:08:26.008Z,60.71
2018-10-07T16:10:53.750Z,60.44
2018-10-07T16:13:21.364Z,60.96
2018-10-07T16:15:49.076Z,61.05
2018-10-07T16:18:16.806Z,61.29
2018-10-07T16:20:44.487Z,61.27
2018-10-07T16:23:12.113Z,61.32
2018-10-07T16:25:39.822Z,61.52
2018-10-07T16:28:07.508Z,61.77
2018-10-07T16:30:35.136Z,61.59
2018-10-07T16:33:02.837Z,62.37
2018-10-07T16:35:30.489Z,62.32
2018-10-07T16:37:58.149Z,62.38
2018-10-07T16:40:25.866Z,62.64
2018-10-07T16:42:53.585Z,63.13
2018-10-07T16:45:21.309Z,63.52
2018-10-07T16:47:49.002Z,63.70
2018-10-07T16:50:16.672Z,63.59
2018-10-07T16:52:49.241Z,63.43
2018-10-07T16:55:17.065Z,63.92
2018-10-07T16:57:44.856Z,63.71
2018-10-07T17:00:12.529Z,64.08
2018-10-07T17:02:40.293Z,64.28
2018-10-07T17:05:08.017Z,64.54
2018-10-07T17:07:35.781Z,65.13
2018-10-07T17:10:03.620Z,65.29
2018-10-07T17:12:31.365Z,66.12
2018-10-07T17:14:59.032Z,65.71
2018-10-07T17:17:26.865Z,65.77
2018-10-07T17:19:54.553Z,65.41
2018-10-07T17:22:22.273Z,65.80
2018-10-07T17:24:50.015Z,66.43
2018-10-07T17:27:17.723Z,66.67
2018-10-07T17:29:45.433Z,66.98
2018-10-07T17:32:13.108Z,67.00
2018-10-07T17:34:40.769Z,66.91
2018-10-07T17:37:08.469Z,66.29
2018-10-07T17:39:36.209Z,66.52
2018-10-07T17:42:03.886Z,66.58
2018-10-07T17:44:31.589Z,67.27
2018-10-07T17:46:59.247Z,67.16
2018-10-07T17:49:26.923Z,66.15
2018-10-07T17:51:54.621Z,66.06
2018-10-07T17:54:22.300Z,66.45
2018-10-07T17:56:49.974Z,66.56
2018-10-07T17:59:17.669Z,66.11
2018-10-07T18:01:45.357Z,66.41
2018-10-07T18:04:13.093Z,66.62
2018-10-07T18:06:40.917Z,66.41
2018-10-07T18:09:09.189Z,66.84
2018-10-07T18:11:37.019Z,67.08
2018-10-07T18:14:04.818Z,67.13
2018-10-07T18:16:32.544Z,67.22
2018-10-07T18:19:00.287Z,67.33
2018-10-07T18:21:28.800Z,67.93
2018-10-07T18:23:56.639Z,67.79
2018-10-07T18:26:24.405Z,68.17
2018-10-07T18:28:52.141Z,68.37
2018-10-07T18:31:19.936Z,68.02
2018-10-07T18:33:47.716Z,68.50
2018-10-07T18:36:15.417Z,69.47
2018-10-07T18:38:43.101Z,69.71
2018-10-07T18:41:10.834Z,68.65
2018-10-07T18:43:39.449Z,68.78
2018-10-07T18:46:07.146Z,69.51
2018-10-07T18:48:35.338Z,69.91
2018-10-07T18:51:03.296Z,69.93
2018-10-07T18:53:31.017Z,69.80
2018-10-07T18:55:58.708Z,69.68
2018-10-07T18:58:26.400Z,70.26
2018-10-07T19:00:54.081Z,70.29
2018-10-07T19:03:21.748Z,70.47
2018-10-07T19:05:49.497Z,70.96
2018-10-07T19:08:17.269Z,69.69
2018-10-07T19:10:44.943Z,71.14
2018-10-07T19:13:12.565Z,70.64
2018-10-07T19:15:40.796Z,72.68
2018-10-07T19:18:08.453Z,72.00
2018-10-07T19:20:36.270Z,73.58
2018-10-07T19:23:04.009Z,72.64
2018-10-07T19:25:31.686Z,73.40
2018-10-07T19:27:59.430Z,72.20
2018-10-07T19:30:27.764Z,73.48
2018-10-07T19:32:55.457Z,72.15
2018-10-07T19:35:23.213Z,73.43
2018-10-07T19:37:50.898Z,73.04
2018-10-07T19:40:18.561Z,73.45
2018-10-07T19:42:46.456Z,73.84
2018-10-07T19:45:14.195Z,72.00
2018-10-07T19:47:44.312Z,73.25
2018-10-07T19:50:12.085Z,72.50
2018-10-07T19:52:39.849Z,72.81
2018-10-07T19:55:07.489Z,72.49
2018-10-07T19:57:35.182Z,73.09
2018-10-07T20:00:03.041Z,73.58
2018-10-07T20:02:30.692Z,74.86
2018-10-07T20:04:58.423Z,73.68
2018-10-07T20:07:26.305Z,73.32
2018-10-07T20:09:53.985Z,74.46
2018-10-07T20:12:21.746Z,74.30
2018-10-07T20:14:53.608Z,74.43
2018-10-07T20:17:21.399Z,74.65
2018-10-07T20:19:49.096Z,74.36
2018-10-07T20:22:17.305Z,75.21
2018-10-07T20:24:45.174Z,74.92
2018-10-07T20:27:12.971Z,75.50
2018-10-07T20:29:41.222Z,74.85
2018-10-07T20:32:09.076Z,74.98
2018-10-07T20:34:37.547Z,74.33
2018-10-07T20:37:05.537Z,74.90
2018-10-07T20:39:33.336Z,74.78
2018-10-07T20:44:57.594Z,76.44
2018-10-07T20:47:25.743Z,73.94
2018-10-07T20:49:54.821Z,75.40
2018-10-07T20:52:25.317Z,74.86
2018-10-07T20:54:52.956Z,74.43
2018-10-07T20:57:28.952Z,73.30
2018-10-07T20:59:59.480Z,73.86
2018-10-07T21:02:27.736Z,74.24
2018-10-07T21:04:58.173Z,75.58
2018-10-07T21:07:32.701Z,73.72
2018-10-07T21:10:01.352Z,74.30
2018-10-07T21:12:29.564Z,74.00
2018-10-07T21:15:03.644Z,74.90
2018-10-07T21:17:33.265Z,73.07
2018-10-07T21:20:03.915Z,75.41
2018-10-07T21:22:31.964Z,74.29
2018-10-07T21:24:59.787Z,74.06
2018-10-07T21:27:28.631Z,74.48
2018-10-07T21:29:57.039Z,75.57
2018-10-07T21:32:25.037Z,75.80
2018-10-07T21:34:55.201Z,75.02
2018-10-07T21:37:23.136Z,74.08
2018-10-07T21:39:51.001Z,74.13
2018-10-07T21:42:19.030Z,74.62
2018-10-07T21:44:47.212Z,74.87
2018-10-07T21:47:16.719Z,73.98
2018-10-07T21:49:44.492Z,74.30
2018-10-07T21:52:16.730Z,73.69
2018-10-07T21:54:45.041Z,73.21
2018-10-07T21:57:12.781Z,73.03
2018-10-07T21:59:40.653Z,73.49
2018-10-07T22:02:08.389Z,73.17
2018-10-07T22:04:37.396Z,72.83
2018-10-07T22:07:05.257Z,72.91
2018-10-07T22:09:32.970Z,72.77
2018-10-07T22:12:00.628Z,72.83
2018-10-07T22:14:28.353Z,72.71
2018-10-07T22:16:56.073Z,72.60
2018-10-07T22:19:23.782Z,72.20
2018-10-07T22:21:51.513Z,72.41
2018-10-07T22:24:19.262Z,72.20
2018-10-07T22:26:47.004Z,71.80
2018-10-07T22:29:14.713Z,72.00
2018-10-07T22:31:42.436Z,71.91
2018-10-07T22:34:13.424Z,71.60
2018-10-07T22:36:41.138Z,72.50
2018-10-07T22:39:08.913Z,71.88
2018-10-07T22:41:36.813Z,72.09
2018-10-07T22:44:04.625Z,72.14
2018-10-07T22:46:32.369Z,72.34
2018-10-07T22:49:00.340Z,72.08
2018-10-07T22:51:28.086Z,72.44
2018-10-07T22:53:55.835Z,71.78
2018-10-07T22:56:23.505Z,72.07
2018-10-07T22:58:51.269Z,72.16
2018-10-07T23:01:18.977Z,72.55
2018-10-07T23:03:46.636Z,72.66
2018-10-07T23:06:14.269Z,73.17
2018-10-07T23:08:42.061Z,73.53
2018-10-07T23:11:09.680Z,73.55
2018-10-07T23:13:37.392Z,73.81
2018-10-07T23:16:05.161Z,74.24
2018-10-07T23:18:32.881Z,73.60
2018-10-07T23:21:00.693Z,74.10
2018-10-07T23:23:28.393Z,74.91
2018-10-07T23:25:56.133Z,74.69
2018-10-07T23:28:23.890Z,74.48
2018-10-07T23:30:51.670Z,74.36
2018-10-07T23:33:19.301Z,74.64
2018-10-07T23:35:47.033Z,74.57
2018-10-07T23:38:14.880Z,74.49
2018-10-07T23:40:43.704Z,75.77
2018-10-07T23:43:11.396Z,75.88
2018-10-07T23:45:39.190Z,75.61
2018-10-07T23:48:06.892Z,76.73
2018-10-07T23:50:34.653Z,76.95
2018-10-07T23:53:02.350Z,76.32
2018-10-07T23:55:30.064Z,75.97
2018-10-07T23:57:57.725Z,76.63
